Time;durP1;ratioP1;P1;durP2;ratioP2;P2;SDS_P1;SDS_P2;PMS_P1;PMS_P2;Temp;Humidity;BMP_temperature;BMP_pressure;BME280_temperature;BME280_humidity;BME280_pressure;Samples;Min_cycle;Max_cycle;Signal;HPM_P1;HPM_P2
2022/11/22 00:01:18;;;;;;;7.00;5.80;;;-0.10;99.90;;;;;;5054122;28;20649;-56
2022/11/22 00:03:45;;;;;;;14.33;6.43;;;0.00;99.90;;;;;;5053916;28;20435;-61
2022/11/22 00:06:12;;;;;;;11.50;5.80;;;0.00;99.90;;;;;;5054324;28;20420;-60
2022/11/22 00:08:39;;;;;;;9.80;4.93;;;0.00;99.90;;;;;;5052503;28;21028;-60
2022/11/22 00:11:07;;;;;;;30.03;7.00;;;0.00;99.90;;;;;;5037919;28;20479;-56
2022/11/22 00:13:34;;;;;;;12.50;6.53;;;-0.10;99.90;;;;;;5038201;28;20452;-55
2022/11/22 00:16:02;;;;;;;10.30;7.13;;;0.00;99.90;;;;;;5028306;28;20424;-64
2022/11/22 00:18:29;;;;;;;9.50;5.50;;;-0.10;99.90;;;;;;5039700;28;20452;-61
2022/11/22 00:20:57;;;;;;;8.73;3.93;;;0.00;99.90;;;;;;5039773;28;20473;-64
2022/11/22 00:23:24;;;;;;;11.57;6.10;;;-0.10;99.90;;;;;;5039594;28;20483;-59
2022/11/22 00:25:50;;;;;;;10.10;6.07;;;-0.20;99.90;;;;;;5039525;28;20463;-60
2022/11/22 00:28:19;;;;;;;12.00;6.17;;;-0.20;99.90;;;;;;5039929;28;20460;-58
2022/11/22 00:30:46;;;;;;;9.20;6.40;;;-0.20;99.90;;;;;;5039582;28;20465;-58
2022/11/22 00:33:13;;;;;;;15.33;8.37;;;-0.20;99.90;;;;;;5038936;28;20496;-56
2022/11/22 00:35:40;;;;;;;8.07;5.40;;;-0.30;99.90;;;;;;5040264;28;20445;-60
2022/11/22 00:38:06;;;;;;;9.63;6.17;;;-0.30;99.90;;;;;;5040489;28;20452;-61
2022/11/22 00:40:33;;;;;;;16.33;6.63;;;-0.30;99.90;;;;;;5040297;28;20453;-57
2022/11/22 00:43:00;;;;;;;15.67;7.37;;;-0.30;99.90;;;;;;5040712;28;20425;-55
2022/11/22 00:45:28;;;;;;;10.77;6.40;;;-0.30;99.90;;;;;;5039759;28;20480;-62
2022/11/22 00:47:55;;;;;;;10.20;5.97;;;-0.30;99.90;;;;;;5040482;28;20479;-60
2022/11/22 00:50:22;;;;;;;12.93;6.43;;;-0.30;99.90;;;;;;5058783;28;20452;-56
2022/11/22 00:52:49;;;;;;;12.13;6.40;;;-0.30;99.90;;;;;;5058266;28;20478;-58
2022/11/22 00:55:16;;;;;;;11.93;7.13;;;-0.20;99.90;;;;;;5058499;28;20439;-59
2022/11/22 00:57:43;;;;;;;10.80;7.20;;;-0.20;99.90;;;;;;5058517;28;20483;-55
2022/11/22 01:00:11;;;;;;;13.43;6.03;;;-0.20;99.90;;;;;;5058399;28;20440;-60
2022/11/22 01:02:39;;;;;;;14.73;6.10;;;-0.20;99.90;;;;;;5058353;28;20460;-48
2022/11/22 01:05:06;;;;;;;19.03;9.40;;;-0.20;99.90;;;;;;5057592;28;20444;-57
2022/11/22 01:07:33;;;;;;;20.80;8.10;;;-0.20;99.90;;;;;;5058267;28;20455;-50
2022/11/22 01:10:00;;;;;;;11.60;6.10;;;-0.20;99.90;;;;;;5056263;28;20468;-47
2022/11/22 01:12:27;;;;;;;15.07;7.87;;;-0.10;99.90;;;;;;5057439;28;20448;-46
2022/11/22 01:14:54;;;;;;;12.73;8.07;;;-0.10;99.90;;;;;;5047152;28;20598;-47
2022/11/22 01:17:21;;;;;;;14.37;6.53;;;-0.10;99.90;;;;;;5037199;28;20464;-44
2022/11/22 01:19:49;;;;;;;15.77;7.30;;;-0.10;99.90;;;;;;5029843;28;20437;-45
2022/11/22 01:22:16;;;;;;;10.87;7.27;;;-0.10;99.90;;;;;;5032458;28;20804;-46
2022/11/22 01:24:43;;;;;;;19.43;7.50;;;0.00;99.90;;;;;;5036395;28;20453;-43
2022/11/22 01:27:09;;;;;;;9.33;6.40;;;0.00;99.90;;;;;;5036670;28;20453;-44
2022/11/22 01:29:36;;;;;;;10.63;6.70;;;0.00;99.90;;;;;;5036635;28;20477;-45
2022/11/22 01:32:03;;;;;;;12.60;7.17;;;0.00;99.90;;;;;;5051305;28;20467;-47
2022/11/22 01:34:30;;;;;;;12.23;5.90;;;0.00;99.90;;;;;;5056537;28;20492;-43
2022/11/22 01:36:59;;;;;;;11.80;6.80;;;0.00;99.90;;;;;;5056995;28;20435;-48
2022/11/22 01:39:26;;;;;;;20.33;8.37;;;-0.10;99.90;;;;;;5057094;28;20464;-42
2022/11/22 01:41:54;;;;;;;16.70;11.47;;;-0.10;99.90;;;;;;5056148;28;20466;-42
2022/11/22 01:44:23;;;;;;;9.57;5.37;;;-0.10;99.90;;;;;;5057213;28;20440;-45
2022/11/22 01:46:53;;;;;;;9.10;5.87;;;-0.10;99.90;;;;;;5057743;28;20432;-45
2022/11/22 01:49:27;;;;;;;16.30;7.93;;;-0.10;99.90;;;;;;5057331;28;20454;-43
2022/11/22 01:51:58;;;;;;;9.40;7.60;;;-0.10;99.90;;;;;;5057442;28;20468;-47
2022/11/22 01:54:31;;;;;;;11.60;6.70;;;-0.10;99.90;;;;;;5057335;28;20451;-52
2022/11/22 01:57:03;;;;;;;11.00;7.97;;;-0.10;99.90;;;;;;5057117;28;20432;-53
2022/11/22 01:59:32;;;;;;;13.83;6.93;;;0.00;99.90;;;;;;5056990;28;20424;-45
2022/11/22 02:01:59;;;;;;;9.47;6.03;;;0.00;99.90;;;;;;5057393;28;20452;-42
2022/11/22 02:04:28;;;;;;;12.57;7.10;;;0.00;99.90;;;;;;5056896;28;20460;-47
2022/11/22 02:07:00;;;;;;;13.20;6.70;;;0.10;99.90;;;;;;5057136;28;20444;-48
2022/11/22 02:09:28;;;;;;;9.73;7.30;;;0.20;99.90;;;;;;5057068;28;20490;-42
2022/11/22 02:12:00;;;;;;;13.87;8.30;;;0.20;99.90;;;;;;5057374;28;20459;-46
2022/11/22 02:14:28;;;;;;;8.97;6.63;;;0.30;99.90;;;;;;5056991;28;20432;-47
2022/11/22 02:16:55;;;;;;;10.90;5.70;;;0.30;99.90;;;;;;5056538;28;20472;-46
2022/11/22 02:19:31;;;;;;;12.83;5.53;;;0.20;99.90;;;;;;5057083;28;20466;-48
2022/11/22 02:22:04;;;;;;;15.73;8.73;;;0.20;99.90;;;;;;5055891;28;20471;-49
2022/11/22 02:24:39;;;;;;;10.13;6.43;;;0.20;99.90;;;;;;5056790;28;20459;-43
2022/11/22 02:27:07;;;;;;;13.20;7.00;;;0.20;99.90;;;;;;5056581;28;20428;-48
2022/11/22 02:29:35;;;;;;;13.43;6.57;;;0.20;99.90;;;;;;5055672;28;20475;-47
2022/11/22 02:32:02;;;;;;;13.10;6.20;;;0.20;99.90;;;;;;5056308;28;20448;-44
2022/11/22 02:34:29;;;;;;;16.80;8.40;;;0.20;99.90;;;;;;5047923;28;20475;-47
2022/11/22 02:36:56;;;;;;;10.27;6.27;;;0.20;99.90;;;;;;5055076;28;20440;-48
2022/11/22 02:39:26;;;;;;;12.10;7.00;;;0.10;99.90;;;;;;5056380;28;20443;-48
2022/11/22 02:41:55;;;;;;;13.63;8.57;;;0.20;99.90;;;;;;5055931;28;20429;-48
2022/11/22 02:44:24;;;;;;;10.00;5.93;;;0.10;99.90;;;;;;5049131;28;20504;-48
2022/11/22 02:46:52;;;;;;;12.67;6.80;;;0.10;99.90;;;;;;5050249;28;20472;-46
2022/11/22 02:49:22;;;;;;;15.23;7.07;;;0.10;99.90;;;;;;5055891;28;20488;-50
2022/11/22 02:51:49;;;;;;;18.37;8.37;;;0.10;99.90;;;;;;5056243;28;20451;-43
2022/11/22 02:54:16;;;;;;;19.80;7.70;;;0.10;99.90;;;;;;5056327;28;20479;-47
2022/11/22 02:56:43;;;;;;;14.47;8.17;;;0.10;99.90;;;;;;5056413;28;20459;-46
2022/11/22 02:59:10;;;;;;;11.27;5.67;;;0.10;99.90;;;;;;5056166;28;20504;-47
2022/11/22 03:01:38;;;;;;;20.13;8.60;;;0.10;99.90;;;;;;5056472;28;20445;-42
2022/11/22 03:04:05;;;;;;;14.03;6.43;;;0.00;99.90;;;;;;5055887;28;20448;-44
2022/11/22 03:06:32;;;;;;;13.40;8.20;;;0.00;99.90;;;;;;5056082;28;20429;-46
2022/11/22 03:08:59;;;;;;;9.27;7.30;;;0.00;99.90;;;;;;5055532;28;20483;-41
2022/11/22 03:11:26;;;;;;;16.73;8.50;;;0.00;99.90;;;;;;5056100;28;20448;-46
2022/11/22 03:13:53;;;;;;;12.10;7.17;;;0.00;99.90;;;;;;5056051;28;20471;-46
2022/11/22 03:16:20;;;;;;;14.30;7.40;;;-0.10;99.90;;;;;;5055412;28;20456;-46
2022/11/22 03:18:48;;;;;;;12.20;7.10;;;0.00;99.90;;;;;;5055415;28;20794;-48
2022/11/22 03:21:15;;;;;;;12.53;6.47;;;-0.10;99.90;;;;;;5055966;28;20458;-43
2022/11/22 03:23:42;;;;;;;12.80;7.50;;;-0.10;99.90;;;;;;5045461;28;20511;-45
2022/11/22 03:26:09;;;;;;;14.47;6.80;;;-0.10;99.90;;;;;;5055501;28;20436;-44
2022/11/22 03:28:36;;;;;;;13.70;7.93;;;-0.10;99.90;;;;;;5042806;28;20476;-42
2022/11/22 03:31:05;;;;;;;9.57;6.60;;;-0.10;99.90;;;;;;5055603;28;20455;-46
2022/11/22 03:33:32;;;;;;;13.13;7.07;;;-0.10;99.90;;;;;;5055407;28;20440;-45
2022/11/22 03:36:01;;;;;;;7.53;4.97;;;-0.10;99.90;;;;;;5055423;28;20479;-46
2022/11/22 03:38:27;;;;;;;14.93;8.70;;;-0.10;99.90;;;;;;5055723;28;20444;-46
2022/11/22 03:40:54;;;;;;;17.60;9.30;;;-0.10;99.90;;;;;;5055519;28;20440;-52
2022/11/22 03:43:21;;;;;;;16.17;8.37;;;-0.10;99.90;;;;;;5059508;28;20440;-47
2022/11/22 03:45:48;;;;;;;22.83;7.83;;;-0.10;99.90;;;;;;5059542;28;20441;-50
2022/11/22 03:48:15;;;;;;;8.63;5.40;;;-0.10;99.90;;;;;;5059611;28;20452;-42
2022/11/22 03:50:42;;;;;;;9.30;5.60;;;-0.20;99.90;;;;;;5059360;28;20473;-47
2022/11/22 03:53:11;;;;;;;11.67;7.27;;;-0.20;99.90;;;;;;5052430;28;20523;-45
2022/11/22 03:55:38;;;;;;;13.50;7.13;;;-0.10;99.90;;;;;;5054004;28;20444;-46
2022/11/22 03:58:05;;;;;;;14.60;5.13;;;-0.20;99.90;;;;;;5059322;28;20444;-47
2022/11/22 04:00:32;;;;;;;12.73;8.40;;;-0.20;99.90;;;;;;5059296;28;20468;-44
2022/11/22 04:02:59;;;;;;;10.97;6.23;;;-0.20;99.90;;;;;;5059386;28;20901;-48
2022/11/22 04:05:26;;;;;;;12.63;8.80;;;-0.20;99.90;;;;;;5059496;28;20474;-44
2022/11/22 04:07:55;;;;;;;10.90;7.00;;;-0.20;99.90;;;;;;5059270;28;20463;-47
2022/11/22 04:10:23;;;;;;;13.63;8.13;;;-0.20;99.90;;;;;;5059353;28;20463;-49
2022/11/22 04:12:50;;;;;;;18.00;11.03;;;-0.20;99.90;;;;;;5059231;28;20475;-47
2022/11/22 04:15:16;;;;;;;14.83;8.10;;;-0.20;99.90;;;;;;5059289;28;20444;-44
2022/11/22 04:17:46;;;;;;;14.40;9.87;;;-0.20;99.90;;;;;;5057809;28;20482;-44
2022/11/22 04:23:02;;;;;;;14.00;6.63;;;-0.20;99.90;;;;;;5045822;28;20439;-46
2022/11/22 04:25:31;;;;;;;17.23;10.63;;;-0.10;99.90;;;;;;5058642;28;20432;-49
2022/11/22 04:27:59;;;;;;;17.97;8.10;;;0.00;99.90;;;;;;5058952;28;20512;-49
2022/11/22 04:32:44;;;;;;;15.93;8.80;;;0.00;99.90;;;;;;5058953;28;20550;-48
2022/11/22 04:33:14;;;;;;;13.20;7.07;;;0.00;99.90;;;;;;5058647;28;20452;-46
2022/11/22 04:35:41;;;;;;;21.40;9.40;;;0.00;99.90;;;;;;5051846;28;20455;-41
2022/11/22 04:38:08;;;;;;;18.20;8.63;;;-0.10;99.90;;;;;;5058748;28;20455;-41
2022/11/22 04:40:37;;;;;;;14.23;7.80;;;-0.10;99.90;;;;;;5058968;28;20454;-38
2022/11/22 04:45:52;;;;;;;19.17;9.27;;;0.00;99.90;;;;;;5059079;28;20431;-47
2022/11/22 04:48:20;;;;;;;23.53;10.87;;;0.10;99.90;;;;;;5058328;28;20489;-45
2022/11/22 04:53:31;;;;;;;16.73;8.50;;;0.10;99.90;;;;;;5057218;28;20466;-48
2022/11/22 04:55:59;;;;;;;16.90;7.33;;;0.20;99.90;;;;;;5058261;28;20448;-49
2022/11/22 04:58:26;;;;;;;11.30;6.93;;;0.10;99.90;;;;;;5058620;28;20467;-43
2022/11/22 05:00:53;;;;;;;12.57;8.23;;;0.10;99.90;;;;;;5047820;28;20548;-45
2022/11/22 05:03:21;;;;;;;16.20;8.37;;;0.10;99.90;;;;;;5056913;28;20498;-49
2022/11/22 05:05:48;;;;;;;15.70;7.73;;;0.20;99.90;;;;;;5054457;28;20452;-43
2022/11/22 05:08:15;;;;;;;19.53;8.90;;;0.30;99.90;;;;;;5055553;28;20435;-47
2022/11/22 05:10:58;;;;;;;15.20;8.97;;;0.30;99.90;;;;;;5052257;28;20515;-48
2022/11/22 05:13:29;;;;;;;16.10;8.10;;;0.30;99.90;;;;;;5054558;28;20496;-50
2022/11/22 05:15:56;;;;;;;18.93;8.60;;;0.30;99.90;;;;;;5057824;28;20436;-50
2022/11/22 05:18:24;;;;;;;19.43;6.03;;;0.30;99.90;;;;;;5057876;28;20468;-44
2022/11/22 05:20:51;;;;;;;18.63;8.27;;;0.30;99.90;;;;;;5055323;28;20425;-44
2022/11/22 05:26:05;;;;;;;22.30;7.90;;;0.40;99.90;;;;;;5057673;28;20451;-50
2022/11/22 05:28:35;;;;;;;14.63;7.00;;;0.50;99.90;;;;;;5057239;28;20424;-45
2022/11/22 05:31:07;;;;;;;15.60;7.90;;;0.50;99.90;;;;;;5057611;28;20448;-50
2022/11/22 05:33:35;;;;;;;14.93;8.30;;;0.50;99.90;;;;;;5057983;28;20476;-42
2022/11/22 05:36:03;;;;;;;15.57;8.00;;;0.50;99.90;;;;;;5057566;28;20436;-48
2022/11/22 05:38:30;;;;;;;14.90;8.23;;;0.50;99.90;;;;;;5052598;28;20444;-40
2022/11/22 05:40:56;;;;;;;16.00;7.70;;;0.40;99.90;;;;;;5052483;28;20437;-50
2022/11/22 05:43:24;;;;;;;19.20;7.67;;;0.40;99.90;;;;;;5057609;28;20496;-46
2022/11/22 05:45:52;;;;;;;16.97;9.10;;;0.40;99.90;;;;;;5057676;28;20455;-45
2022/11/22 05:48:19;;;;;;;12.30;8.40;;;0.40;99.90;;;;;;5056741;28;20499;-48
2022/11/22 05:50:46;;;;;;;14.83;7.17;;;0.50;99.90;;;;;;5057174;28;20521;-44
2022/11/22 05:53:13;;;;;;;14.37;7.53;;;0.50;99.90;;;;;;5057148;28;20444;-42
2022/11/22 05:55:40;;;;;;;18.47;9.17;;;0.50;99.90;;;;;;5056899;28;20460;-43
2022/11/22 05:58:06;;;;;;;17.07;10.10;;;0.50;99.90;;;;;;5057143;28;20460;-43
2022/11/22 06:00:33;;;;;;;25.83;8.10;;;0.50;99.90;;;;;;5057331;28;20451;-41
2022/11/22 06:03:02;;;;;;;13.37;6.87;;;0.50;99.90;;;;;;5049037;28;20803;-48
2022/11/22 06:05:30;;;;;;;16.67;9.10;;;0.50;99.90;;;;;;5053487;28;20448;-41
2022/11/22 06:07:59;;;;;;;13.23;8.27;;;0.50;99.90;;;;;;5057321;28;20460;-39
2022/11/22 06:10:26;;;;;;;15.27;8.00;;;0.50;99.90;;;;;;5057191;28;20506;-45
2022/11/22 06:12:54;;;;;;;20.83;10.53;;;0.50;99.90;;;;;;5056820;28;20459;-46
2022/11/22 06:15:21;;;;;;;16.33;7.77;;;0.50;99.90;;;;;;5057139;28;20432;-49
2022/11/22 06:17:48;;;;;;;21.33;8.90;;;0.60;99.90;;;;;;5056563;28;20508;-47
2022/11/22 06:20:16;;;;;;;15.90;8.47;;;0.60;99.90;;;;;;5056545;28;20471;-46
2022/11/22 06:22:43;;;;;;;23.60;9.63;;;0.60;99.90;;;;;;5056553;28;20444;-46
2022/11/22 06:25:11;;;;;;;17.53;9.40;;;0.60;99.90;;;;;;5056704;28;20470;-39
2022/11/22 06:27:37;;;;;;;20.27;8.77;;;0.60;99.90;;;;;;5056522;28;20499;-45
2022/11/22 06:30:06;;;;;;;13.97;7.70;;;0.60;99.90;;;;;;5056802;28;20476;-42
2022/11/22 06:32:34;;;;;;;13.57;7.17;;;0.60;99.90;;;;;;5056264;28;20476;-44
2022/11/22 06:35:01;;;;;;;15.97;7.20;;;0.70;99.90;;;;;;5056499;28;20455;-42
2022/11/22 06:37:30;;;;;;;12.93;8.37;;;0.70;99.90;;;;;;5046407;28;20452;-39
2022/11/22 06:40:12;;;;;;;15.23;7.80;;;0.70;99.90;;;;;;5056143;28;20444;-41
2022/11/22 06:42:38;;;;;;;20.03;7.80;;;0.70;99.90;;;;;;5053611;28;20967;-48
2022/11/22 06:45:06;;;;;;;27.50;10.00;;;0.80;99.90;;;;;;5056335;28;20432;-47
2022/11/22 06:47:33;;;;;;;14.40;9.07;;;0.70;99.90;;;;;;5056569;28;20428;-46
2022/11/22 06:50:00;;;;;;;19.97;8.70;;;0.70;99.90;;;;;;5056424;28;20479;-41
2022/11/22 06:52:28;;;;;;;19.00;7.50;;;0.80;99.90;;;;;;5055175;28;20471;-49
2022/11/22 06:54:55;;;;;;;16.17;10.00;;;0.90;99.90;;;;;;5050758;28;20445;-55
2022/11/22 06:57:22;;;;;;;16.20;8.30;;;0.90;99.90;;;;;;5050915;28;20471;-52
2022/11/22 06:59:49;;;;;;;14.47;8.90;;;0.90;99.90;;;;;;5055823;28;20425;-54
2022/11/22 07:02:16;;;;;;;18.93;10.40;;;0.90;99.90;;;;;;5055275;28;20487;-50
2022/11/22 07:04:42;;;;;;;22.20;8.33;;;0.90;99.90;;;;;;5055971;28;20428;-52
2022/11/22 07:07:09;;;;;;;12.57;8.73;;;0.90;99.90;;;;;;5047061;28;20477;-52
2022/11/22 07:09:50;;;;;;;16.30;7.40;;;0.80;99.90;;;;;;5056031;28;20479;-53
2022/11/22 07:12:17;;;;;;;15.60;9.27;;;0.80;99.90;;;;;;5055738;28;20455;-50
2022/11/22 07:14:44;;;;;;;18.30;8.13;;;0.80;99.90;;;;;;5055150;28;20473;-52
2022/11/22 07:17:10;;;;;;;14.77;8.07;;;0.80;99.90;;;;;;5045052;28;20460;-50
2022/11/22 07:19:37;;;;;;;14.30;8.40;;;0.80;99.90;;;;;;5048587;28;20421;-52
2022/11/22 07:22:04;;;;;;;20.27;9.57;;;0.80;99.90;;;;;;5034589;28;20441;-51
2022/11/22 07:24:31;;;;;;;22.03;9.60;;;0.90;99.90;;;;;;5044155;28;20436;-57
2022/11/22 07:26:59;;;;;;;13.27;9.13;;;1.00;99.90;;;;;;5055196;28;20437;-52
2022/11/22 07:29:26;;;;;;;22.10;9.60;;;0.90;99.90;;;;;;5054540;28;20440;-56
2022/11/22 07:31:53;;;;;;;21.13;10.10;;;0.90;99.90;;;;;;5055145;28;20454;-48
2022/11/22 07:34:20;;;;;;;19.83;11.30;;;1.00;99.90;;;;;;5054675;28;20451;-55
2022/11/22 07:36:47;;;;;;;19.20;7.93;;;1.00;99.90;;;;;;5054601;28;20439;-53
2022/11/22 07:39:14;;;;;;;13.77;7.33;;;1.10;99.90;;;;;;5054818;28;20483;-55
2022/11/22 07:41:41;;;;;;;21.57;9.50;;;1.10;99.90;;;;;;5051288;28;20441;-51
2022/11/22 07:44:09;;;;;;;16.03;7.97;;;1.10;99.90;;;;;;5034861;28;20445;-51
2022/11/22 07:46:39;;;;;;;17.60;9.60;;;1.10;99.90;;;;;;5182376;23;20464;-47
2022/11/22 07:49:06;;;;;;;14.93;8.90;;;1.20;99.90;;;;;;5043306;28;20444;-52
2022/11/22 07:51:33;;;;;;;13.63;8.93;;;1.20;99.90;;;;;;5052926;28;20476;-49
2022/11/22 07:54:12;;;;;;;9.47;6.20;;;1.20;99.90;;;;;;5046687;28;20428;-48
2022/11/22 07:56:44;;;;;;;17.53;9.20;;;1.20;99.90;;;;;;5055951;28;20428;-52
2022/11/22 07:59:13;;;;;;;21.17;9.13;;;1.30;99.90;;;;;;5055727;28;20508;-53
2022/11/22 08:01:41;;;;;;;16.90;7.60;;;1.30;99.90;;;;;;5055914;28;20453;-50
2022/11/22 08:04:09;;;;;;;15.77;7.80;;;1.40;99.90;;;;;;5055991;28;20464;-52
2022/11/22 08:06:39;;;;;;;17.90;8.10;;;1.30;99.90;;;;;;5055846;28;20440;-50
2022/11/22 08:09:11;;;;;;;16.13;7.73;;;1.20;99.90;;;;;;5055141;28;20475;-49
2022/11/22 08:11:38;;;;;;;14.00;9.50;;;1.20;99.90;;;;;;5054719;28;20486;-55
2022/11/22 08:14:05;;;;;;;16.17;7.93;;;1.30;99.90;;;;;;5054935;28;20432;-51
2022/11/22 08:16:33;;;;;;;21.17;8.83;;;1.30;99.90;;;;;;5049833;28;20468;-50
2022/11/22 08:19:00;;;;;;;12.10;6.60;;;1.40;99.90;;;;;;5047520;28;20476;-50
2022/11/22 08:21:27;;;;;;;14.17;8.13;;;1.40;99.90;;;;;;5052052;28;20448;-54
2022/11/22 08:23:58;;;;;;;13.70;8.33;;;1.40;99.90;;;;;;5055307;28;20428;-54
2022/11/22 08:26:26;;;;;;;13.07;7.30;;;1.40;99.90;;;;;;5055115;28;20440;-53
2022/11/22 08:28:53;;;;;;;20.00;9.47;;;1.40;99.90;;;;;;5056242;28;20488;-53
2022/11/22 08:31:20;;;;;;;15.93;8.03;;;1.40;99.90;;;;;;5057943;28;20494;-52
2022/11/22 08:33:52;;;;;;;20.53;9.30;;;1.40;99.90;;;;;;5058058;28;20436;-52
2022/11/22 08:36:19;;;;;;;24.07;9.97;;;1.50;99.90;;;;;;5058309;28;20424;-50
2022/11/22 08:38:46;;;;;;;16.80;9.60;;;1.40;99.90;;;;;;5056056;28;20440;-57
2022/11/22 08:41:13;;;;;;;14.97;8.23;;;1.40;99.90;;;;;;5043832;28;20437;-55
2022/11/22 08:43:40;;;;;;;19.70;8.93;;;1.40;99.90;;;;;;5038381;28;20452;-52
2022/11/22 08:46:34;;;;;;;15.00;7.97;;;1.50;99.90;;;;;;5044942;28;20466;-52
2022/11/22 08:49:05;;;;;;;15.47;8.30;;;1.50;99.90;;;;;;5038957;28;20457;-50
2022/11/22 08:51:33;;;;;;;17.00;9.00;;;1.50;99.90;;;;;;5046240;28;20476;-53
2022/11/22 08:54:00;;;;;;;19.07;9.57;;;1.50;99.90;;;;;;5057335;28;20447;-55
2022/11/22 08:56:27;;;;;;;19.33;9.63;;;1.60;99.90;;;;;;5044459;28;20432;-55
2022/11/22 08:58:54;;;;;;;24.27;10.37;;;1.60;99.90;;;;;;5058074;28;20495;-49
2022/11/22 09:01:22;;;;;;;22.70;7.80;;;1.60;99.90;;;;;;5058210;28;20456;-52
2022/11/22 09:03:50;;;;;;;20.53;8.10;;;1.60;99.90;;;;;;5058165;28;20471;-52
2022/11/22 09:06:21;;;;;;;14.10;7.23;;;1.60;99.90;;;;;;5057721;28;20455;-52
2022/11/22 09:08:48;;;;;;;17.33;8.70;;;1.70;99.90;;;;;;5058035;28;20440;-55
2022/11/22 09:11:17;;;;;;;20.13;10.17;;;1.70;99.90;;;;;;5058233;28;20487;-53
2022/11/22 09:13:44;;;;;;;22.50;9.57;;;1.70;99.90;;;;;;5058431;28;20463;-51
2022/11/22 09:16:13;;;;;;;18.40;9.43;;;1.70;99.90;;;;;;5058621;28;20444;-46
2022/11/22 09:19:08;;;;;;;18.77;8.90;;;1.70;99.90;;;;;;5058376;28;20428;-49
2022/11/22 09:21:37;;;;;;;16.17;8.00;;;1.70;99.90;;;;;;5058374;28;20452;-48
2022/11/22 09:24:04;;;;;;;15.13;10.13;;;1.70;99.90;;;;;;5057775;28;20460;-50
2022/11/22 09:26:31;;;;;;;15.50;8.73;;;1.80;99.90;;;;;;5057192;28;20459;-52
2022/11/22 09:28:58;;;;;;;17.40;8.70;;;1.80;99.90;;;;;;5057527;28;20451;-51
2022/11/22 09:31:26;;;;;;;21.43;12.00;;;1.80;99.90;;;;;;5057701;28;20501;-55
2022/11/22 09:33:53;;;;;;;21.67;10.90;;;1.80;99.90;;;;;;5057534;28;20463;-53
2022/11/22 09:36:21;;;;;;;26.00;9.00;;;1.80;99.90;;;;;;5057401;28;20468;-49
2022/11/22 09:38:51;;;;;;;20.60;9.67;;;1.80;99.90;;;;;;5057259;28;20490;-56
2022/11/22 09:41:41;;;;;;;23.17;10.20;;;1.90;99.90;;;;;;5057861;28;20451;-53
2022/11/22 09:44:17;;;;;;;16.77;8.93;;;1.90;99.90;;;;;;5057151;28;20463;-57
2022/11/22 09:46:51;;;;;;;30.33;11.20;;;2.00;99.90;;;;;;5056878;28;20416;-54
2022/11/22 09:49:29;;;;;;;26.27;11.47;;;2.00;99.90;;;;;;5057237;28;20451;-51
2022/11/22 09:52:06;;;;;;;21.03;9.03;;;2.10;99.90;;;;;;5057205;28;20462;-52
2022/11/22 09:54:41;;;;;;;18.23;10.53;;;2.10;99.90;;;;;;5056845;28;20467;-50
2022/11/22 09:57:15;;;;;;;15.90;9.20;;;2.00;99.90;;;;;;5056908;28;20440;-52
2022/11/22 09:59:47;;;;;;;22.33;9.83;;;2.10;99.90;;;;;;5056529;28;20408;-50
2022/11/22 10:02:21;;;;;;;19.10;9.10;;;2.10;99.90;;;;;;5057236;28;20459;-54
2022/11/22 10:04:55;;;;;;;20.83;12.23;;;2.10;99.90;;;;;;5056961;28;20412;-53
2022/11/22 10:07:28;;;;;;;22.43;10.53;;;2.10;99.90;;;;;;5056831;28;20472;-49
2022/11/22 10:10:02;;;;;;;23.40;12.30;;;2.10;99.90;;;;;;5056782;28;20428;-51
2022/11/22 10:12:38;;;;;;;17.80;9.90;;;2.10;99.90;;;;;;5056945;28;20440;-55
2022/11/22 10:15:19;;;;;;;16.80;9.27;;;2.20;99.90;;;;;;5057532;28;20928;-48
2022/11/22 10:17:52;;;;;;;17.43;10.57;;;2.30;99.90;;;;;;5057402;28;20441;-50
2022/11/22 10:20:21;;;;;;;15.80;10.23;;;2.30;99.90;;;;;;5057243;28;20417;-54
2022/11/22 10:22:49;;;;;;;17.53;10.40;;;2.30;99.90;;;;;;5057332;28;20440;-49
2022/11/22 10:25:20;;;;;;;23.53;10.53;;;2.30;99.90;;;;;;5056751;28;20479;-47
2022/11/22 10:27:53;;;;;;;22.40;10.60;;;2.40;99.90;;;;;;5057072;28;20455;-47
2022/11/22 10:30:21;;;;;;;22.03;11.77;;;2.40;99.90;;;;;;5053588;28;20484;-50
2022/11/22 10:33:05;;;;;;;24.67;10.10;;;2.40;99.90;;;;;;5057079;28;20470;-48
2022/11/22 10:35:54;;;;;;;26.53;10.57;;;2.40;99.90;;;;;;5056577;28;20454;-53
2022/11/22 10:38:53;;;;;;;22.40;11.17;;;2.40;99.90;;;;;;5056204;28;20464;-47
2022/11/22 10:41:40;;;;;;;13.40;8.60;;;2.50;99.90;;;;;;5053277;28;20440;-54
2022/11/22 10:44:20;;;;;;;15.33;9.27;;;2.50;99.90;;;;;;5056283;28;20470;-48
2022/11/22 10:46:57;;;;;;;18.00;9.17;;;2.60;99.90;;;;;;5056083;28;20436;-51
2022/11/22 10:49:38;;;;;;;18.53;9.50;;;2.60;99.90;;;;;;5056121;28;20455;-49
2022/11/22 10:52:15;;;;;;;17.40;9.00;;;2.70;99.90;;;;;;5055153;28;20894;-53
2022/11/22 10:54:48;;;;;;;17.10;9.27;;;2.70;99.90;;;;;;5056487;28;20412;-49
2022/11/22 10:57:25;;;;;;;18.53;9.50;;;2.70;99.90;;;;;;5055451;28;20437;-55
2022/11/22 11:00:09;;;;;;;21.47;8.97;;;2.70;99.90;;;;;;5056161;28;20452;-46
2022/11/22 11:02:52;;;;;;;20.27;9.67;;;2.80;99.90;;;;;;5056393;28;20456;-51
2022/11/22 11:05:29;;;;;;;22.37;9.00;;;2.80;99.90;;;;;;5055770;28;20458;-53
2022/11/22 11:07:56;;;;;;;29.87;9.47;;;2.80;99.90;;;;;;5055780;28;20536;-48
2022/11/22 11:10:32;;;;;;;21.30;8.00;;;2.80;99.90;;;;;;5051039;28;20436;-49
2022/11/22 11:13:04;;;;;;;16.47;9.47;;;2.80;99.90;;;;;;5041385;28;20440;-55
2022/11/22 11:15:37;;;;;;;24.63;11.27;;;2.90;99.90;;;;;;5054299;28;20433;-52
2022/11/22 11:18:08;;;;;;;18.80;9.10;;;2.90;99.90;;;;;;5041258;28;20426;-53
2022/11/22 11:20:38;;;;;;;22.17;9.70;;;3.00;99.90;;;;;;5053813;28;20475;-50
2022/11/22 11:23:05;;;;;;;25.53;9.70;;;3.00;99.90;;;;;;5054301;28;20450;-49
2022/11/22 11:25:39;;;;;;;28.07;10.50;;;3.10;99.90;;;;;;5054199;28;20448;-50
2022/11/22 11:28:10;;;;;;;22.33;12.13;;;3.10;99.90;;;;;;5046084;28;20531;-49
2022/11/22 11:30:40;;;;;;;25.83;8.77;;;3.10;99.90;;;;;;5052327;28;20443;-48
2022/11/22 11:33:26;;;;;;;32.40;10.50;;;3.10;99.90;;;;;;5055819;28;20498;-47
2022/11/22 11:35:57;;;;;;;18.60;7.13;;;3.20;99.90;;;;;;5043546;28;20465;-52
2022/11/22 11:38:33;;;;;;;22.00;9.20;;;3.20;99.90;;;;;;5055165;28;20474;-52
2022/11/22 11:41:24;;;;;;;22.20;10.50;;;3.20;99.90;;;;;;5055511;28;20448;-52
2022/11/22 11:43:53;;;;;;;19.30;8.90;;;3.30;99.90;;;;;;5055320;28;20433;-50
2022/11/22 11:46:22;;;;;;;14.70;7.80;;;3.30;99.90;;;;;;5043283;28;20444;-48
2022/11/22 11:48:50;;;;;;;23.23;8.60;;;3.30;99.90;;;;;;5054582;28;20428;-49
2022/11/22 11:51:22;;;;;;;21.00;8.03;;;3.30;99.90;;;;;;5055865;28;20471;-47
2022/11/22 11:54:00;;;;;;;17.37;7.37;;;3.30;99.90;;;;;;5055529;28;20432;-45
2022/11/22 11:56:35;;;;;;;16.73;8.07;;;3.40;99.90;;;;;;5042398;28;20460;-45
2022/11/22 11:59:11;;;;;;;22.67;9.80;;;3.40;99.90;;;;;;5035695;28;20416;-48
2022/11/22 12:01:48;;;;;;;24.70;9.83;;;3.40;99.90;;;;;;5035254;28;20431;-49
2022/11/22 12:04:21;;;;;;;18.00;8.87;;;3.40;99.90;;;;;;5037666;28;20488;-48
2022/11/22 12:07:02;;;;;;;21.07;9.20;;;3.40;99.90;;;;;;5038904;28;20445;-54
2022/11/22 12:09:33;;;;;;;24.93;9.47;;;3.40;99.90;;;;;;5039485;28;20472;-48
2022/11/22 12:12:08;;;;;;;15.70;9.17;;;3.40;99.90;;;;;;5039087;28;20480;-48
2022/11/22 12:14:41;;;;;;;13.27;7.03;;;3.30;99.90;;;;;;5039729;28;20452;-48
2022/11/22 12:17:17;;;;;;;14.50;8.40;;;3.30;99.90;;;;;;5038582;28;20425;-51
2022/11/22 12:19:55;;;;;;;22.93;9.30;;;3.30;99.90;;;;;;5039018;28;20463;-50
2022/11/22 12:22:28;;;;;;;22.40;9.70;;;3.40;99.90;;;;;;5038803;28;20452;-55
2022/11/22 12:24:59;;;;;;;14.43;9.37;;;3.40;99.90;;;;;;5039149;28;20433;-56
2022/11/22 12:27:26;;;;;;;17.43;8.90;;;3.40;99.90;;;;;;5025869;28;20475;-53
2022/11/22 12:29:55;;;;;;;24.70;10.13;;;3.40;99.90;;;;;;5038391;28;20455;-51
2022/11/22 12:32:27;;;;;;;16.37;8.87;;;3.40;99.90;;;;;;5058214;28;20499;-50
2022/11/22 12:34:58;;;;;;;22.47;11.60;;;3.40;99.90;;;;;;5057952;28;20455;-53
2022/11/22 12:37:29;;;;;;;21.27;9.77;;;3.50;99.90;;;;;;5058204;28;20425;-52
2022/11/22 12:40:01;;;;;;;20.77;9.10;;;3.50;99.90;;;;;;5058313;28;20517;-49
2022/11/22 12:42:32;;;;;;;25.50;9.23;;;3.50;99.90;;;;;;5058166;28;20424;-53
2022/11/22 12:45:04;;;;;;;26.03;8.43;;;3.50;99.90;;;;;;5051655;28;20456;-52
2022/11/22 12:47:37;;;;;;;18.57;10.50;;;3.50;99.90;;;;;;5051900;28;20444;-53
2022/11/22 12:50:09;;;;;;;20.97;9.57;;;3.50;99.90;;;;;;5058175;28;20424;-47
2022/11/22 12:52:43;;;;;;;19.87;9.40;;;3.50;99.90;;;;;;5045015;28;20553;-49
2022/11/22 12:55:17;;;;;;;22.20;10.13;;;3.40;99.90;;;;;;5057721;28;20459;-50
2022/11/22 12:57:51;;;;;;;18.30;9.37;;;3.40;99.90;;;;;;5057884;28;20427;-51
2022/11/22 13:00:23;;;;;;;20.77;9.37;;;3.40;99.90;;;;;;5056490;28;20438;-48
2022/11/22 13:03:01;;;;;;;29.13;12.80;;;3.50;99.90;;;;;;5057802;28;20432;-48
2022/11/22 13:05:34;;;;;;;19.50;11.47;;;3.50;99.90;;;;;;5058473;28;20468;-51
2022/11/22 13:08:09;;;;;;;24.37;10.83;;;3.50;99.90;;;;;;5058620;28;20432;-48